DMR Gateway Activity
Time (GMT)Time in GMT time zone ModeTransmitted Mode CallsignCallsign TargetTarget, D-Star Reflector, DMR Talk Group etc SrcReceived from source Dur(s)Duration in Seconds LossPacket Loss BERBit Error Rate
11:45:00 Dec 4thDMR TS2
(GPS)
TG 2350NetTX 26+ sec
11:44:54 Dec 4thDMR TS2
(GPS)
TG 2350Net20.70%0.0%
11:37:47 Dec 4thDMR TS2
(GPS)
TG 2350Net0.50%0.0%
11:32:26 Dec 4thDMR TS2
(GPS)
TG 2350Net1.20%0.0%
11:27:03 Dec 4thDMR TS2
(GPS)
TG 2356Net0.50%0.0%
11:14:59 Dec 4thDMR TS2
(GPS)
TG 2350Net0.50%0.0%
11:02:37 Dec 4thDMR TS2
(GPS)
TG 2350Net2.30%0.0%
10:46:37 Dec 4thDMR TS2
(GPS)
TG 235Net6.60%0.0%
10:32:57 Dec 4thDMR TS2
(GPS)
TG 2356Net9.10%0.0%
10:31:24 Dec 4thDMR TS2
(GPS)
TG 235Net24.20%0.0%
09:26:51 Dec 4thDMR TS2
(GPS)
TG 2350Net1.20%0.0%
09:24:57 Dec 4thDMR TS2
(GPS)
TG 2356Net3.50%0.0%
08:11:51 Dec 4thDMR TS2
(GPS)
TG 235Net0.80%1.1%
07:40:20 Dec 4thDMR TS2
(GPS)
TG 2350Net7.86%0.0%
06:28:19 Dec 4thDMR TS2
(GPS)
TG 2356Net1.20%0.0%
05:27:33 Dec 4thDMR TS2
(GPS)
TG 2356Net0.80%1.2%
05:16:50 Dec 4thDMR TS2
(GPS)
TG 2350Net0.80%0.0%
05:15:35 Dec 4thDMR TS2
(GPS)
TG 2350Net0.50%0.0%
04:35:46 Dec 4thDMR TS2
(GPS)
TG 235Net13.10%0.0%
04:34:27 Dec 4thDMR TS2
(GPS)
TG 235Net0.50%0.0%

D-Star Gateway Activity
Time (GMT)Time in GMT time zone ModeTransmitted Mode CallsignCallsign TargetTarget, D-Star Reflector, DMR Talk Group etc SrcReceived from source Dur(s)Duration in Seconds LossPacket Loss BERBit Error Rate
11:00:04 Dec 4thD-Star
MW0MWZ/TIME
(GPS)
CQCQCQ Net4.10%0.0%
06:35:37 Dec 4thD-Star
MW0MWZ/INFO
(GPS)
CQCQCQ Net7.10%0.0%
03:31:48 Dec 4thD-Star
(GPS)
CQCQCQ Net0.50%0.0%
01:49:35 Dec 4thD-Star
KD7PQI/DMR
(GPS)
CQCQCQ Net1.40%0.0%
00:22:39 Dec 4thD-Star
KR3L/DMR
(GPS)
CQCQCQ Net0.80%0.0%

YSF Gateway Activity
Time (GMT)Time in GMT time zone ModeTransmitted Mode CallsignCallsign TargetTarget, D-Star Reflector, DMR Talk Group etc SrcReceived from source Dur(s)Duration in Seconds LossPacket Loss BERBit Error Rate

POCSAG DAPNET Gateway Activity
Time (GMT)Time in GMT time zone Time SlotMessage Mode TargetRIC / CapCode of the receiving Pager MessageMessage contents
11:44:00 Dec 4th Slot 4 0002504 [Skyper OTA Time] 114400 041221
11:41:28 Dec 4th Slot 12 2044189 PD4JD: Mijn RMS staat aan. :)
11:41:28 Dec 4th Slot 12 2044170 PD4JD: Mijn RMS staat aan. :)
11:41:28 Dec 4th Slot 12 0044135 PD4JD: Mijn RMS staat aan. :)
11:41:28 Dec 4th Slot 12 2044179 PD4JD: Mijn RMS staat aan. :)
11:40:09 Dec 4th Slot 0 0002504 [Skyper OTA Time] 114000 041221
11:40:09 Dec 4th Slot 0 0000008 mw0mwz
11:32:03 Dec 4th Slot 4 0002504 [Skyper OTA Time] 113200 041221
11:30:20 Dec 4th Slot 4 0004520 [Skyper Rubric:60 Msg:2] DAPNET-Core Stats PrivMsgs:789 News:525Nodes:7/10 TXs:582/2487
11:30:20 Dec 4th Slot 4 0001060 DAPNET-Core Stats PrivMsgs:789 News:525Nodes:7/10 TXs:582/2487
11:30:00 Dec 4th Slot 0 0000008 mw0mwz
11:28:12 Dec 4th Slot 0 0002504 [Skyper OTA Time] 112800 041221
11:24:00 Dec 4th Slot 8 0002504 [Skyper OTA Time] 112400 041221
11:21:23 Dec 4th Slot 0 0351172 M0GLJ: LCPH 041100Z 18003KT 100V240 9999 FEW025 21/07 Q1015
11:21:23 Dec 4th Slot 0 0351172 M0GLJ: LGKR 041050Z 00000KT 9999 SCT020 16/10 Q1008 NOSIG
11:21:02 Dec 4th Slot 12 0351172 M0GLJ: EGNX 041050Z 25021KT 9999 FEW018 SCT045 06/01 Q0994
11:20:06 Dec 4th Slot 4 0002504 [Skyper OTA Time] 112000 041221
11:20:06 Dec 4th Slot 4 0000008 mw0mwz
11:12:00 Dec 4th Slot 8 0002504 [Skyper OTA Time] 111200 041221
11:11:34 Dec 4th Slot 4 0004512 [Skyper Index Rubric:27] uknews